createdAt,value
2023-12-09T00:01:43.801Z,4.73
2023-12-09T00:04:12.021Z,4.90
2023-12-09T00:06:47.595Z,4.43
2023-12-09T00:09:19.204Z,4.80
2023-12-09T00:11:46.868Z,4.40
2023-12-09T00:14:15.138Z,4.93
2023-12-09T00:16:43.974Z,4.57
2023-12-09T00:19:12.303Z,4.67
2023-12-09T00:21:41.657Z,5.07
2023-12-09T00:24:09.887Z,4.60
2023-12-09T00:26:38.726Z,5.00
2023-12-09T00:29:08.265Z,5.37
2023-12-09T00:31:35.685Z,4.93
2023-12-09T00:34:04.104Z,4.53
2023-12-09T00:36:33.545Z,4.77
2023-12-09T00:39:03.708Z,5.17
2023-12-09T00:41:31.346Z,4.70
2023-12-09T00:44:00.069Z,4.90
2023-12-09T00:46:27.494Z,4.57
2023-12-09T00:48:55.406Z,4.43
2023-12-09T00:51:24.035Z,4.80
2023-12-09T00:53:52.130Z,4.13
2023-12-09T00:56:33.276Z,4.23
2023-12-09T00:59:04.483Z,4.23
2023-12-09T01:01:31.981Z,4.40
2023-12-09T01:03:59.860Z,4.37
2023-12-09T01:06:27.426Z,4.40
2023-12-09T01:08:54.929Z,4.70
2023-12-09T01:11:22.346Z,4.47
2023-12-09T01:13:48.837Z,4.37
2023-12-09T01:16:17.564Z,4.50
2023-12-09T01:18:45.014Z,4.70
2023-12-09T01:21:12.490Z,4.27
2023-12-09T01:23:40.796Z,4.53
2023-12-09T01:26:08.381Z,4.10
2023-12-09T01:28:36.504Z,4.20
2023-12-09T01:31:05.091Z,4.60
2023-12-09T01:33:34.239Z,3.90
2023-12-09T01:36:01.848Z,4.17
2023-12-09T01:38:29.428Z,4.13
2023-12-09T01:40:56.938Z,4.07
2023-12-09T01:43:24.749Z,3.90
2023-12-09T01:45:53.711Z,4.07
2023-12-09T01:48:23.658Z,3.80
2023-12-09T01:50:53.195Z,3.60
2023-12-09T01:53:20.602Z,3.63
2023-12-09T01:55:49.335Z,3.77
2023-12-09T01:58:18.543Z,3.10
2023-12-09T02:00:46.524Z,3.57
2023-12-09T02:03:14.162Z,3.70
2023-12-09T02:05:43.171Z,3.87
2023-12-09T02:08:11.926Z,3.80
2023-12-09T02:10:39.629Z,3.37
2023-12-09T02:13:09.890Z,3.60
2023-12-09T02:15:41.393Z,4.40
2023-12-09T02:18:09.811Z,3.80
2023-12-09T02:20:38.192Z,3.20
2023-12-09T02:23:08.268Z,3.33
2023-12-09T02:29:33.453Z,3.20
2023-12-09T02:32:06.352Z,3.33
2023-12-09T02:34:36.057Z,3.63
2023-12-09T02:37:04.266Z,2.87
2023-12-09T02:39:33.171Z,3.37
2023-12-09T02:42:01.337Z,2.87
2023-12-09T02:44:28.865Z,2.43
2023-12-09T02:46:56.660Z,2.93
2023-12-09T02:49:24.189Z,2.47
2023-12-09T02:51:52.732Z,2.70
2023-12-09T02:54:20.571Z,3.20
2023-12-09T02:56:49.360Z,2.30
2023-12-09T02:59:18.003Z,2.57
2023-12-09T03:01:46.018Z,2.80
2023-12-09T03:04:13.972Z,2.97
2023-12-09T03:06:41.465Z,2.70
2023-12-09T03:09:09.488Z,2.53
2023-12-09T03:11:36.915Z,2.80
2023-12-09T03:14:05.725Z,2.60
2023-12-09T03:16:33.140Z,2.50
2023-12-09T03:19:00.905Z,2.73
2023-12-09T03:21:28.444Z,2.30
2023-12-09T03:23:55.914Z,2.60
2023-12-09T03:26:23.350Z,2.70
2023-12-09T03:28:51.008Z,2.50
2023-12-09T03:31:19.915Z,3.17
2023-12-09T03:33:50.402Z,2.67
2023-12-09T03:36:18.611Z,2.63
2023-12-09T03:38:46.091Z,2.33
2023-12-09T03:41:13.493Z,2.50
2023-12-09T03:43:41.188Z,2.03
2023-12-09T03:46:09.190Z,2.40
2023-12-09T03:48:38.151Z,2.17
2023-12-09T03:51:05.957Z,2.33
2023-12-09T03:53:33.455Z,2.87
2023-12-09T03:56:00.961Z,2.50
2023-12-09T03:58:28.456Z,2.70
2023-12-09T04:00:56.010Z,2.20
2023-12-09T04:03:23.586Z,2.80
2023-12-09T04:05:52.503Z,2.50
2023-12-09T04:08:20.001Z,2.83
2023-12-09T04:10:47.499Z,2.77
2023-12-09T04:13:14.907Z,2.73
2023-12-09T04:15:42.693Z,3.00
2023-12-09T04:18:10.457Z,2.90
2023-12-09T04:20:38.041Z,2.63
2023-12-09T04:23:06.831Z,2.33
2023-12-09T04:25:34.257Z,2.23
2023-12-09T04:28:02.453Z,2.80
2023-12-09T04:30:32.197Z,2.67
2023-12-09T04:32:59.730Z,2.67
2023-12-09T04:35:27.546Z,2.87
2023-12-09T04:37:55.197Z,2.67
2023-12-09T04:40:24.712Z,2.60
2023-12-09T04:42:52.749Z,2.53
2023-12-09T04:45:20.808Z,2.43
2023-12-09T04:47:48.398Z,2.67
2023-12-09T04:50:16.197Z,2.80
2023-12-09T04:52:44.092Z,2.97
2023-12-09T04:55:11.512Z,3.17
2023-12-09T04:57:40.259Z,2.60
2023-12-09T05:00:11.819Z,2.83
2023-12-09T05:02:39.556Z,2.73
2023-12-09T05:05:09.607Z,3.37
2023-12-09T05:07:37.160Z,3.57
2023-12-09T05:10:05.700Z,3.53
2023-12-09T05:12:33.174Z,3.57
2023-12-09T05:15:02.054Z,3.80
2023-12-09T05:17:29.495Z,3.43
2023-12-09T05:19:56.915Z,3.20
2023-12-09T05:22:24.491Z,3.50
2023-12-09T05:24:52.104Z,4.00
2023-12-09T05:27:20.602Z,3.37
2023-12-09T05:29:48.081Z,3.27
2023-12-09T05:32:17.454Z,3.23
2023-12-09T05:34:45.051Z,3.13
2023-12-09T05:37:12.578Z,2.60
2023-12-09T05:39:40.083Z,2.70
2023-12-09T05:42:08.418Z,2.77
2023-12-09T05:44:35.914Z,3.10
2023-12-09T05:47:03.783Z,2.43
2023-12-09T05:49:33.416Z,2.53
2023-12-09T05:52:01.497Z,3.17
2023-12-09T05:54:32.485Z,2.93
2023-12-09T05:56:59.948Z,3.17
2023-12-09T05:59:27.373Z,2.50
2023-12-09T06:01:54.772Z,2.90
2023-12-09T06:04:22.246Z,2.83
2023-12-09T06:06:51.143Z,2.70
2023-12-09T06:09:18.668Z,2.83
2023-12-09T06:11:47.525Z,3.17
2023-12-09T06:14:14.960Z,3.23
2023-12-09T06:16:42.858Z,3.10
2023-12-09T06:19:10.399Z,2.47
2023-12-09T06:21:37.868Z,3.03
2023-12-09T06:24:07.189Z,3.00
2023-12-09T06:26:34.773Z,3.47
2023-12-09T06:29:02.474Z,3.07
2023-12-09T06:31:32.986Z,3.10
2023-12-09T06:34:00.606Z,3.33
2023-12-09T06:36:28.193Z,3.93
2023-12-09T06:38:55.963Z,2.77
2023-12-09T06:41:26.004Z,2.20
2023-12-09T06:43:53.531Z,1.93
2023-12-09T06:46:21.092Z,2.03
2023-12-09T06:48:48.693Z,1.90
2023-12-09T06:51:17.940Z,1.93
2023-12-09T06:53:45.470Z,1.83
2023-12-09T06:56:19.775Z,1.93
2023-12-09T06:58:48.549Z,3.53
2023-12-09T07:01:22.645Z,3.40
2023-12-09T07:03:51.831Z,1.83
2023-12-09T07:06:22.382Z,2.17
2023-12-09T07:08:50.303Z,1.93
2023-12-09T07:11:18.814Z,2.13
2023-12-09T07:13:48.874Z,2.47
2023-12-09T07:16:16.457Z,2.53
2023-12-09T07:18:44.885Z,2.60
2023-12-09T07:21:12.517Z,2.77
2023-12-09T07:23:40.541Z,2.07
2023-12-09T07:26:08.639Z,2.30
2023-12-09T07:28:36.191Z,2.20
2023-12-09T07:31:05.168Z,2.03
2023-12-09T07:33:33.158Z,2.20
2023-12-09T07:36:00.746Z,2.00
2023-12-09T07:38:28.320Z,1.70
2023-12-09T07:40:56.847Z,1.90
2023-12-09T07:43:24.322Z,2.27
2023-12-09T07:45:51.780Z,1.53
2023-12-09T07:48:20.995Z,1.80
2023-12-09T07:50:48.542Z,1.60
2023-12-09T07:53:15.963Z,1.60
2023-12-09T07:55:43.369Z,1.80
2023-12-09T07:58:10.808Z,1.90
2023-12-09T08:00:38.435Z,3.10
2023-12-09T08:03:06.538Z,1.93
2023-12-09T08:05:36.041Z,1.80
2023-12-09T08:08:03.985Z,1.77
2023-12-09T08:10:31.798Z,1.83
2023-12-09T08:12:59.214Z,2.00
2023-12-09T08:15:26.946Z,1.87
2023-12-09T08:17:54.549Z,1.90
2023-12-09T08:20:22.300Z,1.80
2023-12-09T08:22:51.063Z,1.67
2023-12-09T08:25:18.890Z,1.27
2023-12-09T08:27:46.471Z,1.50
2023-12-09T08:30:14.510Z,1.27
2023-12-09T08:32:42.766Z,1.80
2023-12-09T08:35:10.952Z,1.63
2023-12-09T08:37:38.624Z,2.10
2023-12-09T08:40:11.420Z,2.37
2023-12-09T08:42:40.043Z,2.00
2023-12-09T08:45:10.030Z,2.10
2023-12-09T08:47:39.312Z,2.37
2023-12-09T08:50:21.107Z,2.00
2023-12-09T08:52:52.665Z,2.03
2023-12-09T08:55:21.398Z,1.57
2023-12-09T08:57:50.376Z,1.90
2023-12-09T09:00:21.586Z,1.73
2023-12-09T09:02:49.768Z,2.50
2023-12-09T09:05:17.384Z,2.10
2023-12-09T09:07:45.447Z,2.00
2023-12-09T09:10:12.895Z,2.57
2023-12-09T09:12:41.936Z,2.10
2023-12-09T09:15:10.315Z,2.17
2023-12-09T09:17:41.811Z,1.87
2023-12-09T09:20:09.728Z,4.37
2023-12-09T09:22:42.095Z,2.87
2023-12-09T09:25:11.237Z,1.87
2023-12-09T09:27:38.813Z,1.90
2023-12-09T09:30:08.997Z,1.77
2023-12-09T09:32:36.433Z,2.10
2023-12-09T09:35:05.247Z,1.83
2023-12-09T09:37:32.696Z,1.83
2023-12-09T09:40:00.529Z,1.97
2023-12-09T09:42:32.890Z,2.00
2023-12-09T09:45:06.522Z,2.20
2023-12-09T09:47:38.581Z,2.00
2023-12-09T09:50:06.911Z,1.70
2023-12-09T09:52:36.580Z,1.60
2023-12-09T09:55:04.258Z,1.20
2023-12-09T09:57:32.263Z,1.00
2023-12-09T09:59:59.930Z,1.10
2023-12-09T10:02:28.107Z,1.30
2023-12-09T10:04:57.045Z,1.40
2023-12-09T10:07:25.179Z,1.20
2023-12-09T10:09:53.031Z,1.53
2023-12-09T10:12:20.526Z,2.70
2023-12-09T10:14:50.457Z,2.37
2023-12-09T10:17:19.038Z,2.33
2023-12-09T10:19:46.626Z,2.43
2023-12-09T10:22:15.565Z,1.73
2023-12-09T10:24:50.604Z,2.20
2023-12-09T10:27:18.769Z,1.77
2023-12-09T10:29:47.714Z,1.40
2023-12-09T10:32:15.788Z,1.20
2023-12-09T10:34:43.621Z,1.60
2023-12-09T10:37:12.249Z,1.13
2023-12-09T10:39:43.801Z,1.60
2023-12-09T10:42:12.189Z,1.30
2023-12-09T10:44:40.003Z,1.40
2023-12-09T10:47:08.143Z,1.23
2023-12-09T10:49:36.466Z,2.27
2023-12-09T10:52:05.333Z,1.10
2023-12-09T10:54:33.106Z,1.23
2023-12-09T10:57:02.431Z,1.70
2023-12-09T10:59:31.497Z,1.53
2023-12-09T11:02:00.154Z,1.83
2023-12-09T11:04:28.098Z,1.53
2023-12-09T11:06:56.718Z,1.30
2023-12-09T11:09:24.351Z,1.93
2023-12-09T11:11:51.804Z,2.10
2023-12-09T11:14:26.236Z,2.50
2023-12-09T11:16:54.722Z,2.00
2023-12-09T11:19:24.236Z,2.17
2023-12-09T11:21:52.437Z,2.23
2023-12-09T11:24:21.236Z,2.27
2023-12-09T11:26:49.780Z,1.77
2023-12-09T11:29:18.690Z,2.00
2023-12-09T11:31:49.536Z,1.70
2023-12-09T11:34:17.560Z,1.90
2023-12-09T11:36:47.100Z,2.20
2023-12-09T11:39:15.557Z,2.40
2023-12-09T11:41:43.215Z,2.07
2023-12-09T11:44:10.840Z,2.07
2023-12-09T11:46:38.498Z,2.70
2023-12-09T11:49:08.686Z,2.17
2023-12-09T11:51:38.570Z,2.50
2023-12-09T11:54:08.378Z,2.40
2023-12-09T11:56:38.690Z,1.80
2023-12-09T11:59:07.121Z,1.80
2023-12-09T12:01:36.961Z,1.93
2023-12-09T12:04:06.083Z,2.23
2023-12-09T12:06:35.179Z,2.67
2023-12-09T12:09:04.453Z,2.30
2023-12-09T12:11:34.324Z,2.73
2023-12-09T12:14:02.550Z,2.57
2023-12-09T12:16:30.038Z,2.40
2023-12-09T12:18:57.652Z,2.47
2023-12-09T12:21:25.541Z,2.03
2023-12-09T12:23:55.964Z,2.00
2023-12-09T12:26:23.555Z,2.20
2023-12-09T12:28:52.944Z,2.30
2023-12-09T12:31:21.552Z,2.10
2023-12-09T12:33:49.200Z,2.00
2023-12-09T12:36:18.088Z,1.90
2023-12-09T12:38:47.931Z,1.80
2023-12-09T12:41:17.623Z,2.10
2023-12-09T12:43:45.598Z,1.87
2023-12-09T12:46:13.085Z,1.90
2023-12-09T12:48:40.846Z,1.93
2023-12-09T12:51:09.460Z,1.70
2023-12-09T12:53:37.151Z,1.57
2023-12-09T12:56:06.030Z,2.00
2023-12-09T12:58:34.740Z,1.73
2023-12-09T13:01:02.194Z,1.70
2023-12-09T13:03:30.107Z,1.87
2023-12-09T13:05:58.697Z,1.50
2023-12-09T13:08:27.695Z,1.70
2023-12-09T13:11:00.422Z,1.70
2023-12-09T13:13:30.900Z,2.03
2023-12-09T13:15:59.770Z,1.90
2023-12-09T13:18:27.396Z,1.83
2023-12-09T13:20:56.021Z,2.03
2023-12-09T13:23:23.883Z,2.20
2023-12-09T13:25:52.426Z,2.37
2023-12-09T13:28:19.894Z,2.47
2023-12-09T13:30:47.401Z,2.63
2023-12-09T13:33:16.305Z,2.73
2023-12-09T13:35:45.250Z,6.17
2023-12-09T13:38:12.817Z,13.23
2023-12-09T13:40:42.994Z,34.50
2023-12-09T13:43:10.489Z,40.80
2023-12-09T13:45:38.951Z,43.33
2023-12-09T13:48:06.700Z,27.23
2023-12-09T13:50:40.659Z,14.10
2023-12-09T13:53:08.705Z,13.13
2023-12-09T13:55:36.261Z,7.27
2023-12-09T13:58:04.972Z,11.00
2023-12-09T14:00:33.569Z,19.93
2023-12-09T14:03:01.079Z,11.53
2023-12-09T14:05:29.846Z,14.87
2023-12-09T14:07:58.758Z,9.93
2023-12-09T14:10:26.173Z,8.10
2023-12-09T14:12:53.643Z,10.77
2023-12-09T14:15:24.589Z,7.73
2023-12-09T14:17:52.132Z,4.70
2023-12-09T14:20:21.423Z,5.83
2023-12-09T14:22:48.963Z,7.63
2023-12-09T14:25:17.892Z,13.30
2023-12-09T14:27:45.959Z,5.20
2023-12-09T14:30:14.844Z,6.37
2023-12-09T14:32:45.902Z,5.63
2023-12-09T14:35:15.606Z,3.83
2023-12-09T14:37:43.856Z,3.77
2023-12-09T14:40:11.762Z,3.83
2023-12-09T14:42:40.588Z,4.10
2023-12-09T14:45:10.302Z,3.47
2023-12-09T14:47:41.142Z,4.07
2023-12-09T14:50:13.896Z,4.30
2023-12-09T14:52:42.740Z,3.77
2023-12-09T14:55:10.953Z,3.50
2023-12-09T14:57:40.985Z,3.53
2023-12-09T15:00:09.083Z,3.40
2023-12-09T15:02:37.534Z,3.27
2023-12-09T15:05:05.281Z,3.10
2023-12-09T15:07:32.852Z,3.20
2023-12-09T15:10:00.368Z,4.70
2023-12-09T15:12:28.214Z,3.30
2023-12-09T15:14:58.374Z,2.83
2023-12-09T15:17:26.337Z,2.50
2023-12-09T15:19:54.948Z,3.17
2023-12-09T15:22:22.763Z,2.90
2023-12-09T15:24:50.257Z,3.00
2023-12-09T15:27:18.948Z,2.20
2023-12-09T15:29:47.158Z,2.90
2023-12-09T15:32:16.195Z,2.80
2023-12-09T15:34:44.660Z,2.37
2023-12-09T15:37:12.092Z,2.80
2023-12-09T15:39:40.985Z,2.30
2023-12-09T15:42:09.813Z,2.07
2023-12-09T15:44:37.205Z,1.87
2023-12-09T15:47:07.558Z,2.30
2023-12-09T15:49:36.367Z,2.17
2023-12-09T15:52:04.053Z,2.57
2023-12-09T15:54:31.516Z,2.27
2023-12-09T15:57:03.284Z,2.70
2023-12-09T15:59:31.163Z,2.30
2023-12-09T16:01:59.779Z,2.57
2023-12-09T16:04:27.283Z,1.97
2023-12-09T16:06:56.699Z,2.20
2023-12-09T16:09:24.428Z,2.60
2023-12-09T16:11:53.245Z,2.83
2023-12-09T16:14:21.298Z,4.37
2023-12-09T16:16:48.907Z,3.23
2023-12-09T16:19:16.364Z,6.13
2023-12-09T16:21:44.346Z,5.80
2023-12-09T16:24:13.154Z,9.43
2023-12-09T16:26:40.636Z,9.33
2023-12-09T16:29:09.127Z,19.53
2023-12-09T16:31:36.605Z,14.40
2023-12-09T16:34:05.514Z,23.00
2023-12-09T16:36:34.076Z,6.40
2023-12-09T16:39:02.465Z,5.17
2023-12-09T16:41:31.265Z,4.90
2023-12-09T16:43:59.070Z,7.57
2023-12-09T16:46:26.585Z,2.70
2023-12-09T16:48:54.394Z,3.00
2023-12-09T16:51:22.543Z,3.77
2023-12-09T16:53:50.886Z,10.50
2023-12-09T16:56:18.588Z,6.13
2023-12-09T16:58:47.397Z,5.43
2023-12-09T17:01:15.085Z,9.43
2023-12-09T17:03:42.687Z,11.90
2023-12-09T17:06:10.211Z,5.73
2023-12-09T17:08:37.981Z,6.73
2023-12-09T17:11:05.780Z,3.93
2023-12-09T17:13:33.218Z,3.50
2023-12-09T17:16:01.954Z,4.77
2023-12-09T17:18:30.829Z,2.20
2023-12-09T17:20:59.352Z,2.70
2023-12-09T17:23:28.488Z,3.40
2023-12-09T17:25:56.317Z,1.90
2023-12-09T17:28:23.749Z,2.40
2023-12-09T17:30:52.607Z,4.30
2023-12-09T17:33:22.736Z,2.97
2023-12-09T17:35:50.345Z,2.13
2023-12-09T17:38:17.830Z,1.90
2023-12-09T17:40:45.226Z,2.10
2023-12-09T17:43:13.137Z,2.50
2023-12-09T17:45:40.650Z,2.67
2023-12-09T17:48:08.259Z,3.13
2023-12-09T17:50:37.312Z,2.27
2023-12-09T17:53:05.023Z,2.50
2023-12-09T17:55:32.516Z,2.63
2023-12-09T17:58:00.209Z,2.43
2023-12-09T18:00:28.154Z,2.43
2023-12-09T18:02:55.669Z,2.30
2023-12-09T18:05:23.691Z,2.50
2023-12-09T18:07:53.257Z,2.47
2023-12-09T18:10:20.756Z,2.33
2023-12-09T18:12:49.320Z,2.40
2023-12-09T18:15:17.170Z,2.20
2023-12-09T18:17:44.774Z,2.37
2023-12-09T18:20:12.856Z,1.90
2023-12-09T18:22:42.809Z,2.20
2023-12-09T18:25:13.315Z,2.40
2023-12-09T18:27:41.970Z,2.30
2023-12-09T18:30:09.924Z,2.43
2023-12-09T18:32:40.133Z,2.93
2023-12-09T18:35:10.279Z,2.70
2023-12-09T18:37:38.817Z,2.53
2023-12-09T18:40:07.420Z,5.87
2023-12-09T18:42:36.296Z,11.60
2023-12-09T18:45:06.545Z,9.90
2023-12-09T18:47:35.072Z,6.37
2023-12-09T18:50:02.635Z,5.70
2023-12-09T18:52:30.427Z,9.97
2023-12-09T18:54:58.106Z,9.50
2023-12-09T18:57:25.644Z,16.57
2023-12-09T18:59:54.779Z,14.57
2023-12-09T19:02:22.361Z,8.20
2023-12-09T19:04:50.502Z,18.67
2023-12-09T19:07:19.262Z,7.80
2023-12-09T19:09:48.069Z,9.90
2023-12-09T19:12:16.748Z,6.47
2023-12-09T19:14:44.227Z,7.47
2023-12-09T19:17:13.396Z,7.90
2023-12-09T19:19:41.600Z,5.67
2023-12-09T19:22:11.210Z,4.60
2023-12-09T19:24:38.895Z,6.07
2023-12-09T19:27:06.731Z,5.20
2023-12-09T19:29:34.223Z,4.27
2023-12-09T19:32:03.658Z,4.10
2023-12-09T19:34:33.058Z,4.33
2023-12-09T19:37:01.230Z,3.73
2023-12-09T19:39:28.870Z,3.50
2023-12-09T19:41:56.696Z,4.17
2023-12-09T19:44:24.671Z,4.47
2023-12-09T19:46:52.639Z,4.93
2023-12-09T19:49:20.206Z,4.83
2023-12-09T19:51:49.307Z,5.17
2023-12-09T19:54:17.187Z,4.93
2023-12-09T19:56:44.614Z,4.93
2023-12-09T19:59:13.070Z,5.00
2023-12-09T20:01:40.745Z,6.20
2023-12-09T20:04:08.520Z,6.17
2023-12-09T20:06:37.485Z,7.97
2023-12-09T20:09:07.263Z,8.87
2023-12-09T20:11:35.852Z,8.23
2023-12-09T20:14:03.412Z,7.43
2023-12-09T20:16:30.951Z,7.17
2023-12-09T20:19:02.933Z,8.33
2023-12-09T20:21:36.071Z,7.70
2023-12-09T20:24:04.083Z,7.27
2023-12-09T20:26:33.062Z,6.97
2023-12-09T20:29:01.125Z,6.13
2023-12-09T20:31:28.765Z,7.10
2023-12-09T20:33:56.455Z,6.30
2023-12-09T20:36:24.518Z,7.07
2023-12-09T20:38:52.144Z,6.87
2023-12-09T20:41:19.663Z,6.40
2023-12-09T20:43:52.262Z,6.30
2023-12-09T20:46:22.233Z,6.03
2023-12-09T20:48:50.169Z,7.10
2023-12-09T20:51:22.688Z,6.47
2023-12-09T20:53:50.439Z,4.67
2023-12-09T20:56:19.557Z,4.57
2023-12-09T20:58:47.293Z,5.17
2023-12-09T21:01:16.331Z,4.73
2023-12-09T21:03:44.065Z,5.40
2023-12-09T21:06:11.620Z,5.80
2023-12-09T21:08:39.589Z,5.37
2023-12-09T21:11:08.068Z,5.53
2023-12-09T21:13:35.648Z,5.33
2023-12-09T21:16:03.920Z,6.23
2023-12-09T21:18:33.646Z,5.37
2023-12-09T21:21:01.795Z,6.00
2023-12-09T21:23:29.265Z,5.70
2023-12-09T21:25:56.681Z,5.37
2023-12-09T21:28:28.194Z,5.53
2023-12-09T21:30:56.095Z,5.20
2023-12-09T21:33:26.529Z,4.80
2023-12-09T21:35:59.832Z,4.53
2023-12-09T21:38:29.323Z,4.63
2023-12-09T21:40:56.762Z,4.63
2023-12-09T21:43:24.581Z,4.73
2023-12-09T21:45:52.100Z,4.70
2023-12-09T21:48:20.810Z,5.27
2023-12-09T21:50:59.613Z,5.37
2023-12-09T21:53:27.063Z,5.13
2023-12-09T21:55:57.106Z,5.20
2023-12-09T21:58:28.345Z,5.60
2023-12-09T22:00:55.815Z,5.53
2023-12-09T22:03:23.381Z,5.53
2023-12-09T22:05:51.891Z,6.53
2023-12-09T22:08:20.605Z,5.73
2023-12-09T22:10:48.406Z,6.37
2023-12-09T22:13:16.924Z,6.00
2023-12-09T22:15:47.252Z,6.50
2023-12-09T22:18:14.905Z,6.93
2023-12-09T22:20:43.865Z,6.00
2023-12-09T22:23:12.062Z,5.23
2023-12-09T22:25:41.293Z,5.60
2023-12-09T22:28:08.732Z,6.00
2023-12-09T22:30:36.252Z,5.43
2023-12-09T22:33:04.488Z,6.17
2023-12-09T22:35:33.115Z,6.37
2023-12-09T22:38:00.698Z,6.30
2023-12-09T22:40:29.450Z,5.73
2023-12-09T22:42:59.361Z,5.80
2023-12-09T22:45:27.752Z,6.47
2023-12-09T22:47:55.410Z,6.80
2023-12-09T22:50:23.753Z,6.60
2023-12-09T22:52:51.764Z,8.90
2023-12-09T22:55:19.226Z,8.23
2023-12-09T22:57:46.742Z,4.63
2023-12-09T23:00:28.104Z,4.47
2023-12-09T23:02:55.857Z,3.93
2023-12-09T23:05:23.591Z,3.63
2023-12-09T23:07:51.012Z,3.40
2023-12-09T23:10:18.984Z,2.70
2023-12-09T23:12:46.535Z,2.80
2023-12-09T23:15:14.215Z,2.10
2023-12-09T23:17:44.883Z,2.43
2023-12-09T23:20:12.598Z,2.47
2023-12-09T23:22:41.194Z,2.30
2023-12-09T23:25:09.373Z,1.97
2023-12-09T23:27:36.999Z,2.00
2023-12-09T23:30:05.769Z,1.70
2023-12-09T23:32:34.163Z,1.70
2023-12-09T23:35:04.229Z,1.47
2023-12-09T23:37:32.141Z,1.30
2023-12-09T23:40:01.333Z,1.23
2023-12-09T23:42:33.315Z,1.00
2023-12-09T23:45:01.043Z,0.90
2023-12-09T23:47:28.582Z,0.80
2023-12-09T23:49:56.698Z,0.70
2023-12-09T23:52:28.140Z,0.60
2023-12-09T23:54:57.997Z,0.60
2023-12-09T23:57:25.581Z,0.50
2023-12-09T23:59:53.322Z,0.40
